sensor_id;sensor_type;location;lat;lon;timestamp;pressure;altitude;pressure_sealevel;temperature;humidity
6435;BME280;3250;42.694;23.278;2022-12-18T00:02:12;95583.31;;;8.08;91.23
6435;BME280;3250;42.694;23.278;2022-12-18T00:04:37;95555.03;;;7.81;90.98
6435;BME280;3250;42.694;23.278;2022-12-18T00:07:03;95594.53;;;8.02;91.31
6435;BME280;3250;42.694;23.278;2022-12-18T00:09:28;95571.41;;;7.83;91.14
6435;BME280;3250;42.694;23.278;2022-12-18T00:11:54;95594.09;;;7.90;90.76
6435;BME280;3250;42.694;23.278;2022-12-18T00:14:19;95593.47;;;7.88;90.64
6435;BME280;3250;42.694;23.278;2022-12-18T00:16:46;95577.88;;;7.72;91.04
6435;BME280;3250;42.694;23.278;2022-12-18T00:19:13;95599.19;;;7.92;90.54
6435;BME280;3250;42.694;23.278;2022-12-18T00:21:38;95603.59;;;7.91;89.86
6435;BME280;3250;42.694;23.278;2022-12-18T00:24:07;95586.38;;;7.74;90.26
6435;BME280;3250;42.694;23.278;2022-12-18T00:26:34;95602.84;;;7.83;90.16
6435;BME280;3250;42.694;23.278;2022-12-18T00:29:09;95587.41;;;7.65;90.12
6435;BME280;3250;42.694;23.278;2022-12-18T00:31:35;95615.72;;;7.70;90.38
6435;BME280;3250;42.694;23.278;2022-12-18T00:34:01;95614.38;;;7.51;90.78
6435;BME280;3250;42.694;23.278;2022-12-18T00:36:28;95627.47;;;7.51;91.30
6435;BME280;3250;42.694;23.278;2022-12-18T00:38:57;95607.56;;;7.42;91.25
6435;BME280;3250;42.694;23.278;2022-12-18T00:41:24;95621.53;;;7.57;90.75
6435;BME280;3250;42.694;23.278;2022-12-18T00:44:10;95632.84;;;7.57;90.58
6435;BME280;3250;42.694;23.278;2022-12-18T00:46:37;95633.88;;;7.48;89.89
6435;BME280;3250;42.694;23.278;2022-12-18T00:49:02;95641.31;;;7.29;90.25
6435;BME280;3250;42.694;23.278;2022-12-18T00:51:28;95611.00;;;7.03;90.88
6435;BME280;3250;42.694;23.278;2022-12-18T00:53:54;95632.69;;;7.20;91.40
6435;BME280;3250;42.694;23.278;2022-12-18T00:56:19;95632.69;;;7.20;91.09
6435;BME280;3250;42.694;23.278;2022-12-18T00:58:48;95646.59;;;7.20;90.63
6435;BME280;3250;42.694;23.278;2022-12-18T01:01:14;95647.41;;;7.21;90.87
6435;BME280;3250;42.694;23.278;2022-12-18T01:03:39;95649.06;;;7.22;90.93
6435;BME280;3250;42.694;23.278;2022-12-18T01:06:06;95650.22;;;7.11;90.38
6435;BME280;3250;42.694;23.278;2022-12-18T01:08:32;95651.22;;;7.10;91.03
6435;BME280;3250;42.694;23.278;2022-12-18T01:10:57;95641.16;;;6.91;90.28
6435;BME280;3250;42.694;23.278;2022-12-18T01:13:23;95653.47;;;6.66;91.11
6435;BME280;3250;42.694;23.278;2022-12-18T01:15:50;95662.31;;;6.73;91.45
6435;BME280;3250;42.694;23.278;2022-12-18T01:18:15;95645.47;;;6.68;91.93
6435;BME280;3250;42.694;23.278;2022-12-18T01:20:41;95663.28;;;6.80;90.95
6435;BME280;3250;42.694;23.278;2022-12-18T01:23:06;95661.19;;;6.60;90.91
6435;BME280;3250;42.694;23.278;2022-12-18T01:25:32;95643.69;;;6.52;91.24
6435;BME280;3250;42.694;23.278;2022-12-18T01:27:58;95643.84;;;6.59;91.56
6435;BME280;3250;42.694;23.278;2022-12-18T01:30:23;95648.25;;;6.66;91.01
6435;BME280;3250;42.694;23.278;2022-12-18T01:32:49;95671.78;;;6.82;90.78
6435;BME280;3250;42.694;23.278;2022-12-18T01:35:14;95639.75;;;6.64;90.15
6435;BME280;3250;42.694;23.278;2022-12-18T01:37:40;95672.41;;;6.76;90.45
6435;BME280;3250;42.694;23.278;2022-12-18T01:40:06;95656.09;;;6.66;91.11
6435;BME280;3250;42.694;23.278;2022-12-18T01:42:31;95631.59;;;6.51;90.86
6435;BME280;3250;42.694;23.278;2022-12-18T01:47:46;95664.28;;;6.71;90.47
6435;BME280;3250;42.694;23.278;2022-12-18T01:50:16;95677.50;;;6.78;90.49
6435;BME280;3250;42.694;23.278;2022-12-18T01:52:45;95657.28;;;6.56;90.18
6435;BME280;3250;42.694;23.278;2022-12-18T01:55:12;95667.91;;;6.38;91.48
6435;BME280;3250;42.694;23.278;2022-12-18T01:57:39;95684.75;;;6.43;91.56
6435;BME280;3250;42.694;23.278;2022-12-18T02:00:14;95641.28;;;6.26;91.67
6435;BME280;3250;42.694;23.278;2022-12-18T02:02:41;95684.06;;;6.41;91.83
6435;BME280;3250;42.694;23.278;2022-12-18T02:05:09;95681.94;;;6.53;91.27
6435;BME280;3250;42.694;23.278;2022-12-18T02:13:23;95692.25;;;6.63;90.42
6435;BME280;3250;42.694;23.278;2022-12-18T02:18:36;95691.91;;;6.58;91.02
6435;BME280;3250;42.694;23.278;2022-12-18T02:26:49;95700.56;;;6.74;89.58
6435;BME280;3250;42.694;23.278;2022-12-18T02:29:49;95702.19;;;6.67;89.68
6435;BME280;3250;42.694;23.278;2022-12-18T02:32:16;95674.28;;;6.35;90.44
6435;BME280;3250;42.694;23.278;2022-12-18T02:34:43;95690.94;;;6.51;90.17
6435;BME280;3250;42.694;23.278;2022-12-18T02:37:12;95711.84;;;6.59;90.08
6435;BME280;3250;42.694;23.278;2022-12-18T02:39:42;95717.09;;;6.51;90.11
6435;BME280;3250;42.694;23.278;2022-12-18T02:42:08;95709.91;;;6.44;90.29
6435;BME280;3250;42.694;23.278;2022-12-18T02:44:45;95718.25;;;6.48;90.34
6435;BME280;3250;42.694;23.278;2022-12-18T02:47:12;95682.44;;;6.16;90.69
6435;BME280;3250;42.694;23.278;2022-12-18T02:52:18;95727.56;;;6.42;91.04
6435;BME280;3250;42.694;23.278;2022-12-18T02:55:00;95720.22;;;6.46;90.35
6435;BME280;3250;42.694;23.278;2022-12-18T02:57:42;95715.13;;;6.53;91.03
6435;BME280;3250;42.694;23.278;2022-12-18T03:00:21;95714.00;;;6.47;90.27
6435;BME280;3250;42.694;23.278;2022-12-18T03:05:30;95697.00;;;6.35;90.15
6435;BME280;3250;42.694;23.278;2022-12-18T03:07:58;95718.56;;;6.45;90.28
6435;BME280;3250;42.694;23.278;2022-12-18T03:10:29;95722.47;;;6.41;90.08
6435;BME280;3250;42.694;23.278;2022-12-18T03:13:05;95704.34;;;6.31;89.72
6435;BME280;3250;42.694;23.278;2022-12-18T03:15:37;95726.91;;;6.32;90.04
6435;BME280;3250;42.694;23.278;2022-12-18T03:18:08;95735.41;;;6.26;89.72
6435;BME280;3250;42.694;23.278;2022-12-18T03:20:37;95708.38;;;5.85;90.20
6435;BME280;3250;42.694;23.278;2022-12-18T03:23:09;95739.13;;;6.07;90.80
6435;BME280;3250;42.694;23.278;2022-12-18T03:25:39;95712.50;;;5.96;91.35
6435;BME280;3250;42.694;23.278;2022-12-18T03:28:07;95741.75;;;6.07;90.67
6435;BME280;3250;42.694;23.278;2022-12-18T03:30:37;95737.69;;;6.13;91.00
6435;BME280;3250;42.694;23.278;2022-12-18T03:33:20;95749.75;;;6.14;90.63
6435;BME280;3250;42.694;23.278;2022-12-18T03:35:49;95728.19;;;6.04;90.75
6435;BME280;3250;42.694;23.278;2022-12-18T03:38:15;95750.25;;;6.26;89.82
6435;BME280;3250;42.694;23.278;2022-12-18T03:41:05;95759.59;;;6.28;89.31
6435;BME280;3250;42.694;23.278;2022-12-18T03:49:25;95774.97;;;6.39;88.91
6435;BME280;3250;42.694;23.278;2022-12-18T03:52:06;95779.38;;;6.47;87.91
6435;BME280;3250;42.694;23.278;2022-12-18T03:54:35;95769.56;;;6.41;87.48
6435;BME280;3250;42.694;23.278;2022-12-18T03:57:09;95781.81;;;6.40;88.45
6435;BME280;3250;42.694;23.278;2022-12-18T03:59:37;95754.19;;;6.22;87.95
6435;BME280;3250;42.694;23.278;2022-12-18T04:02:05;95775.44;;;6.27;87.10
6435;BME280;3250;42.694;23.278;2022-12-18T04:04:32;95787.84;;;6.25;87.89
6435;BME280;3250;42.694;23.278;2022-12-18T04:06:59;95777.19;;;6.10;88.09
6435;BME280;3250;42.694;23.278;2022-12-18T04:09:25;95793.06;;;6.17;87.35
6435;BME280;3250;42.694;23.278;2022-12-18T04:11:51;95796.00;;;6.14;87.55
6435;BME280;3250;42.694;23.278;2022-12-18T04:14:16;95801.84;;;6.07;87.20
6435;BME280;3250;42.694;23.278;2022-12-18T04:16:42;95810.03;;;6.04;87.51
6435;BME280;3250;42.694;23.278;2022-12-18T04:19:07;95802.06;;;5.80;87.58
6435;BME280;3250;42.694;23.278;2022-12-18T04:21:33;95816.72;;;5.73;88.26
6435;BME280;3250;42.694;23.278;2022-12-18T04:23:58;95815.13;;;5.80;88.75
6435;BME280;3250;42.694;23.278;2022-12-18T04:26:24;95812.03;;;5.77;88.22
6435;BME280;3250;42.694;23.278;2022-12-18T04:28:49;95822.22;;;5.88;88.62
6435;BME280;3250;42.694;23.278;2022-12-18T04:31:15;95822.75;;;5.99;87.76
6435;BME280;3250;42.694;23.278;2022-12-18T04:33:40;95832.53;;;5.97;87.42
6435;BME280;3250;42.694;23.278;2022-12-18T04:36:06;95833.19;;;5.99;87.33
6435;BME280;3250;42.694;23.278;2022-12-18T04:38:31;95827.16;;;6.07;87.07
6435;BME280;3250;42.694;23.278;2022-12-18T04:40:57;95838.16;;;6.19;85.81
6435;BME280;3250;42.694;23.278;2022-12-18T04:43:23;95851.75;;;6.22;85.73
6435;BME280;3250;42.694;23.278;2022-12-18T04:45:48;95852.06;;;6.27;84.09
6435;BME280;3250;42.694;23.278;2022-12-18T04:48:13;95838.97;;;6.19;83.59
6435;BME280;3250;42.694;23.278;2022-12-18T04:50:39;95849.44;;;6.19;83.70
6435;BME280;3250;42.694;23.278;2022-12-18T04:53:04;95860.56;;;6.21;83.24
6435;BME280;3250;42.694;23.278;2022-12-18T04:55:30;95852.69;;;6.13;82.66
6435;BME280;3250;42.694;23.278;2022-12-18T04:57:55;95871.50;;;6.25;82.82
6435;BME280;3250;42.694;23.278;2022-12-18T05:00:21;95879.03;;;6.28;82.88
6435;BME280;3250;42.694;23.278;2022-12-18T05:02:47;95882.78;;;6.25;83.35
6435;BME280;3250;42.694;23.278;2022-12-18T05:05:13;95860.00;;;6.01;83.08
6435;BME280;3250;42.694;23.278;2022-12-18T05:07:38;95887.97;;;6.09;83.38
6435;BME280;3250;42.694;23.278;2022-12-18T05:10:07;95897.84;;;5.97;83.52
6435;BME280;3250;42.694;23.278;2022-12-18T05:12:33;95893.13;;;5.93;83.83
6435;BME280;3250;42.694;23.278;2022-12-18T05:14:58;95896.47;;;5.85;84.46
6435;BME280;3250;42.694;23.278;2022-12-18T05:17:24;95885.50;;;5.82;84.24
6435;BME280;3250;42.694;23.278;2022-12-18T05:19:49;95887.97;;;5.83;84.81
6435;BME280;3250;42.694;23.278;2022-12-18T05:22:15;95903.72;;;5.91;84.46
6435;BME280;3250;42.694;23.278;2022-12-18T05:24:40;95896.28;;;5.79;85.11
6435;BME280;3250;42.694;23.278;2022-12-18T05:27:05;95901.72;;;5.85;84.63
6435;BME280;3250;42.694;23.278;2022-12-18T05:29:31;95916.13;;;5.89;84.58
6435;BME280;3250;42.694;23.278;2022-12-18T05:31:56;95916.72;;;5.83;84.69
6435;BME280;3250;42.694;23.278;2022-12-18T05:34:22;95921.03;;;5.92;84.18
6435;BME280;3250;42.694;23.278;2022-12-18T05:36:47;95927.44;;;5.98;83.91
6435;BME280;3250;42.694;23.278;2022-12-18T05:39:12;95916.19;;;5.80;83.97
6435;BME280;3250;42.694;23.278;2022-12-18T05:41:38;95934.81;;;6.02;83.51
6435;BME280;3250;42.694;23.278;2022-12-18T05:44:03;95941.00;;;6.01;83.39
6435;BME280;3250;42.694;23.278;2022-12-18T05:46:29;95950.13;;;5.97;84.04
6435;BME280;3250;42.694;23.278;2022-12-18T05:48:54;95924.34;;;5.77;84.22
6435;BME280;3250;42.694;23.278;2022-12-18T05:51:21;95945.81;;;5.88;83.22
6435;BME280;3250;42.694;23.278;2022-12-18T05:53:47;95946.53;;;5.73;82.91
6435;BME280;3250;42.694;23.278;2022-12-18T05:56:18;95938.31;;;5.42;83.48
6435;BME280;3250;42.694;23.278;2022-12-18T05:58:44;95952.56;;;5.47;83.36
6435;BME280;3250;42.694;23.278;2022-12-18T06:01:13;95935.25;;;5.46;83.57
6435;BME280;3250;42.694;23.278;2022-12-18T06:03:38;95961.84;;;5.67;83.10
6435;BME280;3250;42.694;23.278;2022-12-18T06:06:11;95935.41;;;5.45;83.10
6435;BME280;3250;42.694;23.278;2022-12-18T06:08:37;95963.06;;;5.55;83.22
6435;BME280;3250;42.694;23.278;2022-12-18T06:11:02;95966.88;;;5.61;83.54
6435;BME280;3250;42.694;23.278;2022-12-18T06:13:28;95968.00;;;5.58;83.91
6435;BME280;3250;42.694;23.278;2022-12-18T06:15:53;95971.91;;;5.62;84.05
6435;BME280;3250;42.694;23.278;2022-12-18T06:18:18;95971.78;;;5.64;83.78
6435;BME280;3250;42.694;23.278;2022-12-18T06:20:44;95971.63;;;5.65;83.69
6435;BME280;3250;42.694;23.278;2022-12-18T06:23:09;95976.22;;;5.72;83.68
6435;BME280;3250;42.694;23.278;2022-12-18T06:25:37;95987.59;;;5.62;83.66
6435;BME280;3250;42.694;23.278;2022-12-18T06:28:03;95984.81;;;5.64;84.02
6435;BME280;3250;42.694;23.278;2022-12-18T06:30:28;95985.56;;;5.74;83.75
6435;BME280;3250;42.694;23.278;2022-12-18T06:32:54;95979.06;;;5.78;82.88
6435;BME280;3250;42.694;23.278;2022-12-18T06:35:19;95990.00;;;5.82;83.46
6435;BME280;3250;42.694;23.278;2022-12-18T06:37:44;95967.22;;;5.66;83.45
6435;BME280;3250;42.694;23.278;2022-12-18T06:40:10;95992.94;;;5.79;84.42
6435;BME280;3250;42.694;23.278;2022-12-18T06:42:35;95996.06;;;5.82;83.64
6435;BME280;3250;42.694;23.278;2022-12-18T06:45:02;95985.75;;;5.81;83.02
6435;BME280;3250;42.694;23.278;2022-12-18T06:47:27;95994.41;;;5.81;82.98
6435;BME280;3250;42.694;23.278;2022-12-18T06:49:53;96006.97;;;5.95;83.54
6435;BME280;3250;42.694;23.278;2022-12-18T06:52:18;96005.19;;;5.96;83.66
6435;BME280;3250;42.694;23.278;2022-12-18T06:54:44;96017.25;;;5.97;83.19
6435;BME280;3250;42.694;23.278;2022-12-18T06:57:09;96018.03;;;5.89;83.12
6435;BME280;3250;42.694;23.278;2022-12-18T06:59:34;96018.75;;;5.99;82.31
6435;BME280;3250;42.694;23.278;2022-12-18T07:02:00;95964.81;;;5.73;81.57
6435;BME280;3250;42.694;23.278;2022-12-18T07:04:29;96011.53;;;5.93;81.80
6435;BME280;3250;42.694;23.278;2022-12-18T07:06:55;96021.06;;;6.02;81.82
6435;BME280;3250;42.694;23.278;2022-12-18T07:09:20;96015.78;;;5.94;81.07
6435;BME280;3250;42.694;23.278;2022-12-18T07:11:46;96016.28;;;5.98;80.92
6435;BME280;3250;42.694;23.278;2022-12-18T07:14:11;96027.94;;;6.03;80.74
6435;BME280;3250;42.694;23.278;2022-12-18T07:16:36;96035.81;;;6.12;80.98
6435;BME280;3250;42.694;23.278;2022-12-18T07:19:02;96034.13;;;6.02;80.89
6435;BME280;3250;42.694;23.278;2022-12-18T07:21:27;95995.28;;;5.64;80.98
6435;BME280;3250;42.694;23.278;2022-12-18T07:23:53;96037.13;;;5.72;80.52
6435;BME280;3250;42.694;23.278;2022-12-18T07:26:20;96017.97;;;5.46;81.69
6435;BME280;3250;42.694;23.278;2022-12-18T07:28:47;96021.41;;;5.46;82.38
6435;BME280;3250;42.694;23.278;2022-12-18T07:31:16;96023.19;;;5.46;82.13
6435;BME280;3250;42.694;23.278;2022-12-18T07:33:42;96034.25;;;5.57;81.56
6435;BME280;3250;42.694;23.278;2022-12-18T07:36:09;96045.97;;;5.53;81.55
6435;BME280;3250;42.694;23.278;2022-12-18T07:38:35;96033.75;;;5.36;82.06
6435;BME280;3250;42.694;23.278;2022-12-18T07:41:01;96056.19;;;5.47;82.77
6435;BME280;3250;42.694;23.278;2022-12-18T07:43:27;96055.53;;;5.45;82.58
6435;BME280;3250;42.694;23.278;2022-12-18T07:45:52;96053.13;;;5.51;82.49
6435;BME280;3250;42.694;23.278;2022-12-18T07:48:18;96056.44;;;5.53;81.63
6435;BME280;3250;42.694;23.278;2022-12-18T07:50:43;96055.34;;;5.46;82.72
6435;BME280;3250;42.694;23.278;2022-12-18T07:53:08;96059.63;;;5.47;82.68
6435;BME280;3250;42.694;23.278;2022-12-18T07:55:34;96069.78;;;5.50;82.72
6435;BME280;3250;42.694;23.278;2022-12-18T07:58:03;96061.47;;;5.37;82.34
6435;BME280;3250;42.694;23.278;2022-12-18T08:00:29;96072.88;;;5.54;82.37
6435;BME280;3250;42.694;23.278;2022-12-18T08:02:56;96067.53;;;5.55;82.26
6435;BME280;3250;42.694;23.278;2022-12-18T08:05:21;96080.97;;;5.60;82.55
6435;BME280;3250;42.694;23.278;2022-12-18T08:07:47;96017.63;;;5.23;83.10
6435;BME280;3250;42.694;23.278;2022-12-18T08:10:13;96083.25;;;5.63;82.17
6435;BME280;3250;42.694;23.278;2022-12-18T08:12:38;96084.75;;;5.48;82.14
6435;BME280;3250;42.694;23.278;2022-12-18T08:15:05;96086.47;;;5.57;81.83
6435;BME280;3250;42.694;23.278;2022-12-18T08:17:30;96091.16;;;5.54;81.85
6435;BME280;3250;42.694;23.278;2022-12-18T08:19:56;96069.91;;;5.31;81.82
6435;BME280;3250;42.694;23.278;2022-12-18T08:22:21;96091.97;;;5.37;81.95
6435;BME280;3250;42.694;23.278;2022-12-18T08:24:47;96094.38;;;5.30;82.64
6435;BME280;3250;42.694;23.278;2022-12-18T08:27:12;96080.63;;;5.28;82.66
6435;BME280;3250;42.694;23.278;2022-12-18T08:29:37;96097.66;;;5.32;81.99
6435;BME280;3250;42.694;23.278;2022-12-18T08:32:03;96105.28;;;5.43;82.56
6435;BME280;3250;42.694;23.278;2022-12-18T08:34:29;96065.44;;;5.23;82.28
6435;BME280;3250;42.694;23.278;2022-12-18T08:36:54;96114.75;;;5.44;81.56
6435;BME280;3250;42.694;23.278;2022-12-18T08:39:21;96118.19;;;5.45;81.13
6435;BME280;3250;42.694;23.278;2022-12-18T08:41:46;96123.25;;;5.46;81.83
6435;BME280;3250;42.694;23.278;2022-12-18T08:44:32;96125.66;;;5.57;80.69
6435;BME280;3250;42.694;23.278;2022-12-18T08:47:03;96118.28;;;5.53;79.94
6435;BME280;3250;42.694;23.278;2022-12-18T08:49:29;96106.03;;;5.36;79.79
6435;BME280;3250;42.694;23.278;2022-12-18T08:51:55;96103.84;;;5.31;79.73
6435;BME280;3250;42.694;23.278;2022-12-18T08:54:22;96130.19;;;5.38;80.19
6435;BME280;3250;42.694;23.278;2022-12-18T08:56:48;96121.59;;;5.45;80.57
6435;BME280;3250;42.694;23.278;2022-12-18T08:59:15;96114.75;;;5.44;81.47
6435;BME280;3250;42.694;23.278;2022-12-18T09:01:40;96089.53;;;5.35;80.65
6435;BME280;3250;42.694;23.278;2022-12-18T09:04:07;96105.63;;;5.30;79.74
6435;BME280;3250;42.694;23.278;2022-12-18T09:06:33;96124.06;;;5.47;80.67
6435;BME280;3250;42.694;23.278;2022-12-18T09:08:58;96127.59;;;5.55;81.33
6435;BME280;3250;42.694;23.278;2022-12-18T09:11:26;96133.28;;;5.68;79.41
6435;BME280;3250;42.694;23.278;2022-12-18T09:13:52;96117.97;;;5.56;78.38
6435;BME280;3250;42.694;23.278;2022-12-18T09:16:19;96121.78;;;5.44;79.15
6435;BME280;3250;42.694;23.278;2022-12-18T09:18:45;96104.16;;;5.46;80.53
6435;BME280;3250;42.694;23.278;2022-12-18T09:21:13;96119.19;;;5.61;79.80
6435;BME280;3250;42.694;23.278;2022-12-18T09:23:40;96095.19;;;5.48;79.14
6435;BME280;3250;42.694;23.278;2022-12-18T09:26:06;96120.56;;;5.74;78.95
6435;BME280;3250;42.694;23.278;2022-12-18T09:28:32;96105.94;;;5.63;78.12
6435;BME280;3250;42.694;23.278;2022-12-18T09:30:58;96102.91;;;5.67;78.12
6435;BME280;3250;42.694;23.278;2022-12-18T09:33:23;96112.25;;;5.70;77.76
6435;BME280;3250;42.694;23.278;2022-12-18T09:35:48;96124.69;;;5.76;77.11
6435;BME280;3250;42.694;23.278;2022-12-18T09:38:17;96120.91;;;5.71;77.40
6435;BME280;3250;42.694;23.278;2022-12-18T09:40:52;96099.53;;;5.57;77.24
6435;BME280;3250;42.694;23.278;2022-12-18T09:43:26;96119.25;;;5.69;77.76
6435;BME280;3250;42.694;23.278;2022-12-18T09:46:04;96127.31;;;5.76;77.70
6435;BME280;3250;42.694;23.278;2022-12-18T09:48:40;96125.19;;;5.80;77.13
6435;BME280;3250;42.694;23.278;2022-12-18T09:53:38;96117.50;;;5.88;77.29
6435;BME280;3250;42.694;23.278;2022-12-18T09:56:12;96120.31;;;5.94;77.74
6435;BME280;3250;42.694;23.278;2022-12-18T09:58:50;96125.47;;;6.04;77.56
6435;BME280;3250;42.694;23.278;2022-12-18T10:01:23;96125.38;;;6.14;76.98
6435;BME280;3250;42.694;23.278;2022-12-18T10:03:50;96105.19;;;6.06;75.64
6435;BME280;3250;42.694;23.278;2022-12-18T10:06:31;96095.22;;;6.01;75.61
6435;BME280;3250;42.694;23.278;2022-12-18T10:09:17;96118.03;;;6.17;75.79
6435;BME280;3250;42.694;23.278;2022-12-18T10:11:50;96121.66;;;6.24;75.64
6435;BME280;3250;42.694;23.278;2022-12-18T10:27:17;96127.47;;;6.36;75.98
6435;BME280;3250;42.694;23.278;2022-12-18T10:29:44;96124.38;;;6.40;75.38
6435;BME280;3250;42.694;23.278;2022-12-18T10:32:15;96129.03;;;6.47;74.98
6435;BME280;3250;42.694;23.278;2022-12-18T10:34:45;96132.53;;;6.55;75.17
6435;BME280;3250;42.694;23.278;2022-12-18T10:37:16;96126.47;;;6.55;75.03
6435;BME280;3250;42.694;23.278;2022-12-18T10:39:42;96112.00;;;6.42;74.27
6435;BME280;3250;42.694;23.278;2022-12-18T10:42:25;96120.22;;;6.48;74.55
6435;BME280;3250;42.694;23.278;2022-12-18T10:45:02;96117.28;;;6.51;73.77
6435;BME280;3250;42.694;23.278;2022-12-18T10:47:28;96121.44;;;6.61;73.41
6435;BME280;3250;42.694;23.278;2022-12-18T10:49:56;96090.97;;;6.52;73.97
6435;BME280;3250;42.694;23.278;2022-12-18T10:52:24;96108.38;;;6.69;73.30
6435;BME280;3250;42.694;23.278;2022-12-18T10:54:52;96122.44;;;6.68;73.37
6435;BME280;3250;42.694;23.278;2022-12-18T10:57:50;96117.38;;;6.67;74.29
6435;BME280;3250;42.694;23.278;2022-12-18T11:00:27;96112.50;;;6.72;73.84
6435;BME280;3250;42.694;23.278;2022-12-18T11:02:54;96116.44;;;6.76;72.10
6435;BME280;3250;42.694;23.278;2022-12-18T11:07:51;96127.06;;;6.74;70.87
6435;BME280;3250;42.694;23.278;2022-12-18T11:10:21;96124.66;;;6.81;71.93
6435;BME280;3250;42.694;23.278;2022-12-18T11:12:48;96118.59;;;6.80;72.40
6435;BME280;3250;42.694;23.278;2022-12-18T11:15:20;96122.69;;;6.83;71.29
6435;BME280;3250;42.694;23.278;2022-12-18T11:17:48;96125.50;;;6.90;71.59
6435;BME280;3250;42.694;23.278;2022-12-18T11:20:34;96121.88;;;6.82;70.82
6435;BME280;3250;42.694;23.278;2022-12-18T11:23:03;96110.78;;;6.55;71.46
6435;BME280;3250;42.694;23.278;2022-12-18T11:25:30;96121.50;;;6.77;73.32
6435;BME280;3250;42.694;23.278;2022-12-18T11:28:01;96121.06;;;6.82;73.24
6435;BME280;3250;42.694;23.278;2022-12-18T11:30:32;96131.59;;;6.98;71.24
6435;BME280;3250;42.694;23.278;2022-12-18T11:33:19;96127.16;;;6.91;71.78
6435;BME280;3250;42.694;23.278;2022-12-18T11:35:55;96121.44;;;6.95;71.79
6435;BME280;3250;42.694;23.278;2022-12-18T11:38:28;96112.09;;;6.93;71.22
6435;BME280;3250;42.694;23.278;2022-12-18T11:41:14;96113.22;;;6.82;70.27
6435;BME280;3250;42.694;23.278;2022-12-18T11:43:51;96112.56;;;6.88;70.66
6435;BME280;3250;42.694;23.278;2022-12-18T11:46:24;96135.84;;;6.91;70.64
6435;BME280;3250;42.694;23.278;2022-12-18T11:49:30;96132.66;;;6.79;70.61
6435;BME280;3250;42.694;23.278;2022-12-18T11:52:09;96136.94;;;6.89;70.22
6435;BME280;3250;42.694;23.278;2022-12-18T11:54:36;96120.56;;;6.87;71.03
6435;BME280;3250;42.694;23.278;2022-12-18T11:59:55;96125.69;;;6.96;71.01
6435;BME280;3250;42.694;23.278;2022-12-18T12:05:53;96099.75;;;6.77;70.67
6435;BME280;3250;42.694;23.278;2022-12-18T12:08:53;96122.22;;;6.88;71.73
6435;BME280;3250;42.694;23.278;2022-12-18T12:13:48;96118.09;;;6.85;71.49
6435;BME280;3250;42.694;23.278;2022-12-18T12:21:52;96112.38;;;6.81;71.94
6435;BME280;3250;42.694;23.278;2022-12-18T12:24:31;96095.81;;;6.73;72.26
6435;BME280;3250;42.694;23.278;2022-12-18T12:32:20;96130.47;;;6.75;72.12
6435;BME280;3250;42.694;23.278;2022-12-18T12:39:51;96130.19;;;6.78;73.67
6435;BME280;3250;42.694;23.278;2022-12-18T12:45:18;96110.84;;;6.71;72.36
6435;BME280;3250;42.694;23.278;2022-12-18T12:47:47;96127.94;;;6.83;72.22
6435;BME280;3250;42.694;23.278;2022-12-18T12:50:17;96135.16;;;6.89;72.66
6435;BME280;3250;42.694;23.278;2022-12-18T12:52:46;96113.13;;;6.66;72.20
6435;BME280;3250;42.694;23.278;2022-12-18T12:55:19;96116.09;;;6.71;72.01
6435;BME280;3250;42.694;23.278;2022-12-18T12:57:55;96140.03;;;6.84;72.82
6435;BME280;3250;42.694;23.278;2022-12-18T13:00:25;96131.84;;;6.79;72.48
6435;BME280;3250;42.694;23.278;2022-12-18T13:08:12;96146.97;;;6.67;71.65
6435;BME280;3250;42.694;23.278;2022-12-18T13:10:46;96154.31;;;6.64;71.84
6435;BME280;3250;42.694;23.278;2022-12-18T13:13:16;96152.38;;;6.66;72.75
6435;BME280;3250;42.694;23.278;2022-12-18T13:15:46;96155.28;;;6.63;72.72
6435;BME280;3250;42.694;23.278;2022-12-18T13:18:17;96162.03;;;6.65;71.60
6435;BME280;3250;42.694;23.278;2022-12-18T13:20:46;96165.06;;;6.61;72.25
6435;BME280;3250;42.694;23.278;2022-12-18T13:34:24;96176.03;;;6.56;72.08
6435;BME280;3250;42.694;23.278;2022-12-18T13:36:51;96171.75;;;6.55;72.96
6435;BME280;3250;42.694;23.278;2022-12-18T13:44:56;96167.84;;;6.59;72.14
6435;BME280;3250;42.694;23.278;2022-12-18T13:47:47;96181.25;;;6.56;72.39
6435;BME280;3250;42.694;23.278;2022-12-18T13:50:24;96189.25;;;6.55;72.74
6435;BME280;3250;42.694;23.278;2022-12-18T13:52:51;96189.03;;;6.48;72.94
6435;BME280;3250;42.694;23.278;2022-12-18T13:55:19;96198.16;;;6.44;71.74
6435;BME280;3250;42.694;23.278;2022-12-18T13:57:46;96197.03;;;6.47;71.61
6435;BME280;3250;42.694;23.278;2022-12-18T14:00:29;96197.19;;;6.45;71.38
6435;BME280;3250;42.694;23.278;2022-12-18T14:02:58;96201.25;;;6.39;71.14
6435;BME280;3250;42.694;23.278;2022-12-18T14:05:27;96196.50;;;6.43;71.37
6435;BME280;3250;42.694;23.278;2022-12-18T14:07:54;96168.72;;;6.24;70.95
6435;BME280;3250;42.694;23.278;2022-12-18T14:10:21;96204.75;;;6.48;71.08
6435;BME280;3250;42.694;23.278;2022-12-18T14:12:48;96199.41;;;6.40;70.11
6435;BME280;3250;42.694;23.278;2022-12-18T14:20:24;96201.69;;;6.17;70.55
6435;BME280;3250;42.694;23.278;2022-12-18T14:22:50;96203.69;;;6.23;71.01
6435;BME280;3250;42.694;23.278;2022-12-18T14:25:21;96200.03;;;6.16;70.10
6435;BME280;3250;42.694;23.278;2022-12-18T14:27:51;96208.03;;;6.15;70.22
6435;BME280;3250;42.694;23.278;2022-12-18T14:30:30;96216.63;;;6.07;70.27
6435;BME280;3250;42.694;23.278;2022-12-18T14:35:52;96223.34;;;6.10;69.69
6435;BME280;3250;42.694;23.278;2022-12-18T14:40:47;96204.22;;;6.09;69.33
6435;BME280;3250;42.694;23.278;2022-12-18T14:43:16;96197.00;;;6.03;69.17
6435;BME280;3250;42.694;23.278;2022-12-18T14:45:43;96219.78;;;6.11;69.19
6435;BME280;3250;42.694;23.278;2022-12-18T14:48:16;96214.53;;;6.11;68.98
6435;BME280;3250;42.694;23.278;2022-12-18T14:50:42;96219.69;;;6.02;68.52
6435;BME280;3250;42.694;23.278;2022-12-18T14:53:32;96194.75;;;5.90;68.31
6435;BME280;3250;42.694;23.278;2022-12-18T14:55:58;96202.16;;;5.95;68.77
6435;BME280;3250;42.694;23.278;2022-12-18T14:58:23;96219.78;;;6.11;68.56
6435;BME280;3250;42.694;23.278;2022-12-18T15:00:50;96222.69;;;6.07;68.78
6435;BME280;3250;42.694;23.278;2022-12-18T15:03:18;96223.81;;;6.05;68.67
6435;BME280;3250;42.694;23.278;2022-12-18T15:05:45;96210.50;;;5.98;68.59
6435;BME280;3250;42.694;23.278;2022-12-18T15:08:28;96226.56;;;6.03;68.54
6435;BME280;3250;42.694;23.278;2022-12-18T15:10:54;96205.19;;;5.90;67.81
6435;BME280;3250;42.694;23.278;2022-12-18T15:13:22;96223.72;;;5.97;67.67
6435;BME280;3250;42.694;23.278;2022-12-18T15:15:48;96222.66;;;5.90;68.09
6435;BME280;3250;42.694;23.278;2022-12-18T15:18:17;96223.47;;;5.90;68.11